sensor_id;sensor_type;location;lat;lon;timestamp;temperature;humidity
36594;DHT22;22603;47.900;8.146;2022-12-18T00:02:01;-10.20;99.90
36594;DHT22;22603;47.900;8.146;2022-12-18T00:04:49;-10.20;99.90
36594;DHT22;22603;47.900;8.146;2022-12-18T00:07:38;-10.20;99.90
36594;DHT22;22603;47.900;8.146;2022-12-18T00:10:25;-10.30;99.90
36594;DHT22;22603;47.900;8.146;2022-12-18T00:13:13;-10.40;99.90
36594;DHT22;22603;47.900;8.146;2022-12-18T00:16:02;-10.40;99.90
36594;DHT22;22603;47.900;8.146;2022-12-18T00:18:51;-10.60;99.90
36594;DHT22;22603;47.900;8.146;2022-12-18T00:21:39;-10.60;99.90
36594;DHT22;22603;47.900;8.146;2022-12-18T00:24:29;-10.50;99.90
36594;DHT22;22603;47.900;8.146;2022-12-18T00:27:15;-10.40;99.90
36594;DHT22;22603;47.900;8.146;2022-12-18T00:30:06;-10.40;99.90
36594;DHT22;22603;47.900;8.146;2022-12-18T00:32:54;-10.40;99.90
36594;DHT22;22603;47.900;8.146;2022-12-18T00:35:41;-10.60;99.90
36594;DHT22;22603;47.900;8.146;2022-12-18T00:38:28;-10.60;99.90
36594;DHT22;22603;47.900;8.146;2022-12-18T00:41:17;-10.60;99.90
36594;DHT22;22603;47.900;8.146;2022-12-18T00:44:25;-10.50;99.90
36594;DHT22;22603;47.900;8.146;2022-12-18T00:47:12;-10.60;99.90
36594;DHT22;22603;47.900;8.146;2022-12-18T00:50:00;-10.80;99.90
36594;DHT22;22603;47.900;8.146;2022-12-18T00:52:47;-10.80;99.90
36594;DHT22;22603;47.900;8.146;2022-12-18T00:55:34;-10.80;99.90
36594;DHT22;22603;47.900;8.146;2022-12-18T00:58:21;-10.80;99.90
36594;DHT22;22603;47.900;8.146;2022-12-18T01:01:08;-10.80;99.90
36594;DHT22;22603;47.900;8.146;2022-12-18T01:04:01;-10.70;99.90
36594;DHT22;22603;47.900;8.146;2022-12-18T01:06:49;-10.70;99.90
36594;DHT22;22603;47.900;8.146;2022-12-18T01:09:36;-10.70;99.90
36594;DHT22;22603;47.900;8.146;2022-12-18T01:12:23;-10.70;99.90
36594;DHT22;22603;47.900;8.146;2022-12-18T01:19:03;-10.80;99.90
36594;DHT22;22603;47.900;8.146;2022-12-18T01:21:51;-10.70;99.90
36594;DHT22;22603;47.900;8.146;2022-12-18T01:24:38;-10.70;99.90
36594;DHT22;22603;47.900;8.146;2022-12-18T01:27:24;-10.80;99.90
36594;DHT22;22603;47.900;8.146;2022-12-18T01:30:12;-10.80;99.90
36594;DHT22;22603;47.900;8.146;2022-12-18T01:32:59;-10.90;99.90
36594;DHT22;22603;47.900;8.146;2022-12-18T01:35:47;-10.80;99.90
36594;DHT22;22603;47.900;8.146;2022-12-18T01:38:34;-10.80;99.90
36594;DHT22;22603;47.900;8.146;2022-12-18T01:41:24;-10.80;99.90
36594;DHT22;22603;47.900;8.146;2022-12-18T01:47:43;-10.80;99.90
36594;DHT22;22603;47.900;8.146;2022-12-18T01:50:33;-10.80;99.90
36594;DHT22;22603;47.900;8.146;2022-12-18T01:53:24;-10.70;99.90
36594;DHT22;22603;47.900;8.146;2022-12-18T01:56:14;-10.50;99.90
36594;DHT22;22603;47.900;8.146;2022-12-18T01:59:03;-10.50;99.90
36594;DHT22;22603;47.900;8.146;2022-12-18T02:01:51;-10.40;99.90
36594;DHT22;22603;47.900;8.146;2022-12-18T02:04:38;-10.40;99.90
36594;DHT22;22603;47.900;8.146;2022-12-18T02:07:42;-10.50;99.90
36594;DHT22;22603;47.900;8.146;2022-12-18T02:10:37;-10.40;99.90
36594;DHT22;22603;47.900;8.146;2022-12-18T02:13:32;-10.30;99.90
36594;DHT22;22603;47.900;8.146;2022-12-18T02:16:24;-10.30;99.90
36594;DHT22;22603;47.900;8.146;2022-12-18T02:22:33;-10.20;99.90
36594;DHT22;22603;47.900;8.146;2022-12-18T02:25:35;-10.20;99.90
36594;DHT22;22603;47.900;8.146;2022-12-18T02:28:31;-10.20;99.90
36594;DHT22;22603;47.900;8.146;2022-12-18T02:31:29;-10.20;99.90
36594;DHT22;22603;47.900;8.146;2022-12-18T02:34:18;-10.20;99.90
36594;DHT22;22603;47.900;8.146;2022-12-18T02:37:11;-10.10;99.90
36594;DHT22;22603;47.900;8.146;2022-12-18T02:39:59;-10.10;99.90
36594;DHT22;22603;47.900;8.146;2022-12-18T02:42:47;-10.10;99.90
36594;DHT22;22603;47.900;8.146;2022-12-18T02:45:37;-10.20;99.90
36594;DHT22;22603;47.900;8.146;2022-12-18T02:48:34;-10.20;99.90
36594;DHT22;22603;47.900;8.146;2022-12-18T02:51:28;-10.20;99.90
36594;DHT22;22603;47.900;8.146;2022-12-18T02:54:24;-10.20;99.90
36594;DHT22;22603;47.900;8.146;2022-12-18T02:57:18;-10.10;99.90
36594;DHT22;22603;47.900;8.146;2022-12-18T03:00:11;-10.10;99.90
36594;DHT22;22603;47.900;8.146;2022-12-18T03:03:06;-10.10;99.90
36594;DHT22;22603;47.900;8.146;2022-12-18T03:05:57;-10.10;99.90
36594;DHT22;22603;47.900;8.146;2022-12-18T03:08:49;-10.10;99.90
36594;DHT22;22603;47.900;8.146;2022-12-18T03:11:42;-10.10;99.90
36594;DHT22;22603;47.900;8.146;2022-12-18T03:14:49;-10.10;99.90
36594;DHT22;22603;47.900;8.146;2022-12-18T03:17:39;-10.10;99.90
36594;DHT22;22603;47.900;8.146;2022-12-18T03:20:31;-10.10;99.90
36594;DHT22;22603;47.900;8.146;2022-12-18T03:23:22;-10.10;99.90
36594;DHT22;22603;47.900;8.146;2022-12-18T03:26:14;-10.20;99.90
36594;DHT22;22603;47.900;8.146;2022-12-18T03:29:04;-10.30;99.90
36594;DHT22;22603;47.900;8.146;2022-12-18T03:31:56;-10.30;99.90
36594;DHT22;22603;47.900;8.146;2022-12-18T03:34:49;-10.30;99.90
36594;DHT22;22603;47.900;8.146;2022-12-18T03:37:39;-10.30;99.90
36594;DHT22;22603;47.900;8.146;2022-12-18T03:40:31;-10.20;99.90
36594;DHT22;22603;47.900;8.146;2022-12-18T03:43:31;-10.20;99.90
36594;DHT22;22603;47.900;8.146;2022-12-18T03:46:27;-10.20;99.90
36594;DHT22;22603;47.900;8.146;2022-12-18T03:49:22;-10.10;99.90
36594;DHT22;22603;47.900;8.146;2022-12-18T03:52:15;-10.00;99.90
36594;DHT22;22603;47.900;8.146;2022-12-18T03:55:07;-10.00;99.90
36594;DHT22;22603;47.900;8.146;2022-12-18T03:57:55;-9.80;99.90
36594;DHT22;22603;47.900;8.146;2022-12-18T04:00:43;-9.80;99.90
36594;DHT22;22603;47.900;8.146;2022-12-18T04:03:31;-9.70;99.90
36594;DHT22;22603;47.900;8.146;2022-12-18T04:06:22;-9.60;99.90
36594;DHT22;22603;47.900;8.146;2022-12-18T04:09:09;-9.40;99.90
36594;DHT22;22603;47.900;8.146;2022-12-18T04:11:58;-9.40;99.90
36594;DHT22;22603;47.900;8.146;2022-12-18T04:14:45;-9.30;99.90
36594;DHT22;22603;47.900;8.146;2022-12-18T04:17:33;-9.20;99.90
36594;DHT22;22603;47.900;8.146;2022-12-18T04:20:20;-9.20;99.90
36594;DHT22;22603;47.900;8.146;2022-12-18T04:23:07;-9.20;99.90
36594;DHT22;22603;47.900;8.146;2022-12-18T04:25:54;-9.10;99.90
36594;DHT22;22603;47.900;8.146;2022-12-18T04:28:43;-9.10;99.90
36594;DHT22;22603;47.900;8.146;2022-12-18T04:31:30;-9.10;99.90
36594;DHT22;22603;47.900;8.146;2022-12-18T04:34:17;-9.10;99.90
36594;DHT22;22603;47.900;8.146;2022-12-18T04:37:04;-9.00;99.90
36594;DHT22;22603;47.900;8.146;2022-12-18T04:39:51;-8.90;99.90
36594;DHT22;22603;47.900;8.146;2022-12-18T04:42:39;-8.90;99.90
36594;DHT22;22603;47.900;8.146;2022-12-18T04:45:28;-8.90;99.90
36594;DHT22;22603;47.900;8.146;2022-12-18T04:48:15;-8.90;99.90
36594;DHT22;22603;47.900;8.146;2022-12-18T04:51:02;-8.90;99.90
36594;DHT22;22603;47.900;8.146;2022-12-18T04:53:48;-8.90;99.90
36594;DHT22;22603;47.900;8.146;2022-12-18T04:56:35;-8.80;99.90
36594;DHT22;22603;47.900;8.146;2022-12-18T04:59:22;-8.70;99.90
36594;DHT22;22603;47.900;8.146;2022-12-18T05:02:11;-8.60;99.90
36594;DHT22;22603;47.900;8.146;2022-12-18T05:04:58;-8.50;99.90
36594;DHT22;22603;47.900;8.146;2022-12-18T05:07:45;-8.30;99.90
36594;DHT22;22603;47.900;8.146;2022-12-18T05:10:33;-8.30;99.90
36594;DHT22;22603;47.900;8.146;2022-12-18T05:13:25;-8.40;99.90
36594;DHT22;22603;47.900;8.146;2022-12-18T05:16:13;-8.50;99.90
36594;DHT22;22603;47.900;8.146;2022-12-18T05:19:02;-8.50;99.90
36594;DHT22;22603;47.900;8.146;2022-12-18T05:21:51;-8.50;99.90
36594;DHT22;22603;47.900;8.146;2022-12-18T05:24:38;-8.50;99.90
36594;DHT22;22603;47.900;8.146;2022-12-18T05:27:25;-8.40;99.90
36594;DHT22;22603;47.900;8.146;2022-12-18T05:30:13;-8.50;99.90
36594;DHT22;22603;47.900;8.146;2022-12-18T05:33:01;-8.40;99.90
36594;DHT22;22603;47.900;8.146;2022-12-18T05:35:52;-8.40;99.90
36594;DHT22;22603;47.900;8.146;2022-12-18T05:38:41;-8.50;99.90
36594;DHT22;22603;47.900;8.146;2022-12-18T05:41:28;-8.50;99.90
36594;DHT22;22603;47.900;8.146;2022-12-18T05:44:15;-8.50;99.90
36594;DHT22;22603;47.900;8.146;2022-12-18T05:47:09;-8.60;99.90
36594;DHT22;22603;47.900;8.146;2022-12-18T05:50:03;-8.60;99.90
36594;DHT22;22603;47.900;8.146;2022-12-18T05:52:52;-8.60;99.90
36594;DHT22;22603;47.900;8.146;2022-12-18T05:55:40;-8.60;99.90
36594;DHT22;22603;47.900;8.146;2022-12-18T05:58:27;-8.70;99.90
36594;DHT22;22603;47.900;8.146;2022-12-18T06:01:21;-8.60;99.90
36594;DHT22;22603;47.900;8.146;2022-12-18T06:04:09;-8.60;99.90
36594;DHT22;22603;47.900;8.146;2022-12-18T06:06:56;-8.50;99.90
36594;DHT22;22603;47.900;8.146;2022-12-18T06:09:45;-8.30;99.90
36594;DHT22;22603;47.900;8.146;2022-12-18T06:12:32;-8.30;99.90
36594;DHT22;22603;47.900;8.146;2022-12-18T06:15:19;-8.30;99.90
36594;DHT22;22603;47.900;8.146;2022-12-18T06:18:06;-8.30;99.90
36594;DHT22;22603;47.900;8.146;2022-12-18T06:20:57;-8.30;99.90
36594;DHT22;22603;47.900;8.146;2022-12-18T06:23:45;-8.30;99.90
36594;DHT22;22603;47.900;8.146;2022-12-18T06:26:34;-8.30;99.90
36594;DHT22;22603;47.900;8.146;2022-12-18T06:29:23;-8.20;99.90
36594;DHT22;22603;47.900;8.146;2022-12-18T06:32:11;-8.20;99.90
36594;DHT22;22603;47.900;8.146;2022-12-18T06:34:57;-8.30;99.90
36594;DHT22;22603;47.900;8.146;2022-12-18T06:37:44;-8.20;99.90
36594;DHT22;22603;47.900;8.146;2022-12-18T06:40:32;-8.20;99.90
36594;DHT22;22603;47.900;8.146;2022-12-18T06:43:20;-8.20;99.90
36594;DHT22;22603;47.900;8.146;2022-12-18T06:46:08;-8.20;99.90
36594;DHT22;22603;47.900;8.146;2022-12-18T06:48:55;-8.00;99.90
36594;DHT22;22603;47.900;8.146;2022-12-18T06:51:42;-8.00;99.90
36594;DHT22;22603;47.900;8.146;2022-12-18T06:54:30;-8.00;99.90
36594;DHT22;22603;47.900;8.146;2022-12-18T06:57:17;-8.00;99.90
36594;DHT22;22603;47.900;8.146;2022-12-18T07:00:07;-8.10;99.90
36594;DHT22;22603;47.900;8.146;2022-12-18T07:02:54;-8.20;99.90
36594;DHT22;22603;47.900;8.146;2022-12-18T07:05:42;-8.10;99.90
36594;DHT22;22603;47.900;8.146;2022-12-18T07:08:30;-8.10;99.90
36594;DHT22;22603;47.900;8.146;2022-12-18T07:11:17;-8.30;99.90
36594;DHT22;22603;47.900;8.146;2022-12-18T07:14:05;-8.40;99.90
36594;DHT22;22603;47.900;8.146;2022-12-18T07:16:53;-8.40;99.90
36594;DHT22;22603;47.900;8.146;2022-12-18T07:19:41;-8.50;99.90
36594;DHT22;22603;47.900;8.146;2022-12-18T07:22:28;-8.50;99.90
36594;DHT22;22603;47.900;8.146;2022-12-18T07:25:15;-8.40;99.90
36594;DHT22;22603;47.900;8.146;2022-12-18T07:28:03;-8.40;99.90
36594;DHT22;22603;47.900;8.146;2022-12-18T07:30:51;-8.30;99.90
36594;DHT22;22603;47.900;8.146;2022-12-18T07:33:41;-8.30;99.90
36594;DHT22;22603;47.900;8.146;2022-12-18T07:36:28;-8.10;99.90
36594;DHT22;22603;47.900;8.146;2022-12-18T07:39:16;-8.20;99.90
36594;DHT22;22603;47.900;8.146;2022-12-18T07:42:03;-8.20;99.90
36594;DHT22;22603;47.900;8.146;2022-12-18T07:45:10;-8.00;99.90
36594;DHT22;22603;47.900;8.146;2022-12-18T07:47:56;-7.90;99.90
36594;DHT22;22603;47.900;8.146;2022-12-18T07:50:45;-8.00;99.90
36594;DHT22;22603;47.900;8.146;2022-12-18T07:53:34;-7.80;99.90
36594;DHT22;22603;47.900;8.146;2022-12-18T07:56:22;-7.80;99.90
36594;DHT22;22603;47.900;8.146;2022-12-18T07:59:13;-7.70;99.90
36594;DHT22;22603;47.900;8.146;2022-12-18T08:02:02;-7.50;99.90
36594;DHT22;22603;47.900;8.146;2022-12-18T08:04:51;-7.60;99.90
36594;DHT22;22603;47.900;8.146;2022-12-18T08:07:40;-7.60;99.90
36594;DHT22;22603;47.900;8.146;2022-12-18T08:10:26;-7.70;99.90
36594;DHT22;22603;47.900;8.146;2022-12-18T08:13:13;-7.70;99.90
36594;DHT22;22603;47.900;8.146;2022-12-18T08:16:02;-7.50;99.90
36594;DHT22;22603;47.900;8.146;2022-12-18T08:18:52;-7.50;99.90
36594;DHT22;22603;47.900;8.146;2022-12-18T08:21:39;-7.60;99.90
36594;DHT22;22603;47.900;8.146;2022-12-18T08:24:30;-7.60;99.90
36594;DHT22;22603;47.900;8.146;2022-12-18T08:27:17;-7.60;99.90
36594;DHT22;22603;47.900;8.146;2022-12-18T08:30:14;-7.70;99.90
36594;DHT22;22603;47.900;8.146;2022-12-18T08:33:01;-7.70;99.90
36594;DHT22;22603;47.900;8.146;2022-12-18T08:35:48;-7.60;99.90
36594;DHT22;22603;47.900;8.146;2022-12-18T08:38:36;-7.50;99.90
36594;DHT22;22603;47.900;8.146;2022-12-18T08:41:24;-7.50;99.90
36594;DHT22;22603;47.900;8.146;2022-12-18T08:44:11;-7.30;99.90
36594;DHT22;22603;47.900;8.146;2022-12-18T08:47:15;-7.20;99.90
36594;DHT22;22603;47.900;8.146;2022-12-18T08:50:03;-7.10;99.90
36594;DHT22;22603;47.900;8.146;2022-12-18T08:52:51;-7.00;99.90
36594;DHT22;22603;47.900;8.146;2022-12-18T08:55:38;-6.70;99.90
36594;DHT22;22603;47.900;8.146;2022-12-18T08:58:31;-6.40;99.90
36594;DHT22;22603;47.900;8.146;2022-12-18T09:01:19;-6.00;99.90
36594;DHT22;22603;47.900;8.146;2022-12-18T09:04:08;-5.40;99.90
36594;DHT22;22603;47.900;8.146;2022-12-18T09:06:55;-4.70;99.90
36594;DHT22;22603;47.900;8.146;2022-12-18T09:09:42;-4.00;99.90
36594;DHT22;22603;47.900;8.146;2022-12-18T09:12:29;-3.30;99.90
36594;DHT22;22603;47.900;8.146;2022-12-18T09:15:18;-2.90;99.90
36594;DHT22;22603;47.900;8.146;2022-12-18T09:18:05;-1.90;99.90
36594;DHT22;22603;47.900;8.146;2022-12-18T09:20:53;-1.40;99.90
36594;DHT22;22603;47.900;8.146;2022-12-18T09:23:40;-0.70;99.90
36594;DHT22;22603;47.900;8.146;2022-12-18T09:26:28;-0.30;99.90
36594;DHT22;22603;47.900;8.146;2022-12-18T09:29:15;0.50;99.90
36594;DHT22;22603;47.900;8.146;2022-12-18T09:32:05;-0.60;99.90
36594;DHT22;22603;47.900;8.146;2022-12-18T09:34:52;-0.40;99.90
36594;DHT22;22603;47.900;8.146;2022-12-18T09:37:39;-1.30;99.90
36594;DHT22;22603;47.900;8.146;2022-12-18T09:40:34;-1.90;99.90
36594;DHT22;22603;47.900;8.146;2022-12-18T09:43:26;-1.40;99.90
36594;DHT22;22603;47.900;8.146;2022-12-18T09:46:17;-0.50;99.90
36594;DHT22;22603;47.900;8.146;2022-12-18T09:49:12;-0.80;99.90
36594;DHT22;22603;47.900;8.146;2022-12-18T09:52:03;-0.10;99.90
36594;DHT22;22603;47.900;8.146;2022-12-18T09:54:55;-1.20;99.90
36594;DHT22;22603;47.900;8.146;2022-12-18T09:57:48;-0.80;99.90
36594;DHT22;22603;47.900;8.146;2022-12-18T10:00:36;-0.70;99.90
36594;DHT22;22603;47.900;8.146;2022-12-18T10:03:23;-0.80;99.90
36594;DHT22;22603;47.900;8.146;2022-12-18T10:06:15;-0.20;99.90
36594;DHT22;22603;47.900;8.146;2022-12-18T10:09:09;-0.80;99.90
36594;DHT22;22603;47.900;8.146;2022-12-18T10:12:06;-0.20;99.90
36594;DHT22;22603;47.900;8.146;2022-12-18T10:14:59;-0.30;99.90
36594;DHT22;22603;47.900;8.146;2022-12-18T10:17:53;0.30;99.90
36594;DHT22;22603;47.900;8.146;2022-12-18T10:20:47;-0.40;99.90
36594;DHT22;22603;47.900;8.146;2022-12-18T10:23:42;-0.10;99.90
36594;DHT22;22603;47.900;8.146;2022-12-18T10:26:33;-0.50;99.90
36594;DHT22;22603;47.900;8.146;2022-12-18T10:29:20;0.20;99.90
36594;DHT22;22603;47.900;8.146;2022-12-18T10:32:14;0.80;99.90
36594;DHT22;22603;47.900;8.146;2022-12-18T10:35:02;0.80;99.90
36594;DHT22;22603;47.900;8.146;2022-12-18T10:38:04;2.00;99.90
36594;DHT22;22603;47.900;8.146;2022-12-18T10:40:56;2.40;99.90
36594;DHT22;22603;47.900;8.146;2022-12-18T10:43:43;2.10;99.90
36594;DHT22;22603;47.900;8.146;2022-12-18T10:46:31;1.80;99.90
36594;DHT22;22603;47.900;8.146;2022-12-18T10:49:21;1.70;99.90
36594;DHT22;22603;47.900;8.146;2022-12-18T10:52:14;2.40;99.90
36594;DHT22;22603;47.900;8.146;2022-12-18T10:55:04;1.50;99.90
36594;DHT22;22603;47.900;8.146;2022-12-18T10:57:53;1.20;99.90
36594;DHT22;22603;47.900;8.146;2022-12-18T11:00:43;1.20;99.90
36594;DHT22;22603;47.900;8.146;2022-12-18T11:03:33;1.80;99.90
36594;DHT22;22603;47.900;8.146;2022-12-18T11:06:23;1.70;99.90
36594;DHT22;22603;47.900;8.146;2022-12-18T11:09:20;1.90;99.90
36594;DHT22;22603;47.900;8.146;2022-12-18T11:12:17;1.70;99.90
36594;DHT22;22603;47.900;8.146;2022-12-18T11:15:13;2.10;99.90
36594;DHT22;22603;47.900;8.146;2022-12-18T11:18:01;2.00;99.90
36594;DHT22;22603;47.900;8.146;2022-12-18T11:20:52;2.40;99.90
36594;DHT22;22603;47.900;8.146;2022-12-18T11:23:47;2.70;99.90
36594;DHT22;22603;47.900;8.146;2022-12-18T11:26:35;2.10;99.90
36594;DHT22;22603;47.900;8.146;2022-12-18T11:29:27;2.10;99.90
36594;DHT22;22603;47.900;8.146;2022-12-18T11:32:29;1.30;99.90
36594;DHT22;22603;47.900;8.146;2022-12-18T11:35:21;1.90;99.90
36594;DHT22;22603;47.900;8.146;2022-12-18T11:38:18;1.80;99.90
36594;DHT22;22603;47.900;8.146;2022-12-18T11:41:15;2.00;99.90
36594;DHT22;22603;47.900;8.146;2022-12-18T11:44:34;2.00;99.90
36594;DHT22;22603;47.900;8.146;2022-12-18T11:47:28;2.10;99.90
36594;DHT22;22603;47.900;8.146;2022-12-18T11:50:19;2.70;99.90
36594;DHT22;22603;47.900;8.146;2022-12-18T11:53:11;2.50;99.90
36594;DHT22;22603;47.900;8.146;2022-12-18T11:56:13;2.30;99.90
36594;DHT22;22603;47.900;8.146;2022-12-18T11:59:12;1.50;99.90
36594;DHT22;22603;47.900;8.146;2022-12-18T12:02:14;1.10;99.90
36594;DHT22;22603;47.900;8.146;2022-12-18T12:05:36;0.60;99.90
36594;DHT22;22603;47.900;8.146;2022-12-18T12:08:35;0.20;99.90
36594;DHT22;22603;47.900;8.146;2022-12-18T12:11:32;1.00;99.90
36594;DHT22;22603;47.900;8.146;2022-12-18T12:14:32;0.70;99.90
36594;DHT22;22603;47.900;8.146;2022-12-18T12:17:28;0.90;99.90
36594;DHT22;22603;47.900;8.146;2022-12-18T12:20:22;0.50;99.90
36594;DHT22;22603;47.900;8.146;2022-12-18T12:23:16;0.70;99.90
36594;DHT22;22603;47.900;8.146;2022-12-18T12:26:14;0.40;99.90
36594;DHT22;22603;47.900;8.146;2022-12-18T12:29:21;0.70;99.90
36594;DHT22;22603;47.900;8.146;2022-12-18T12:32:20;0.80;99.90
36594;DHT22;22603;47.900;8.146;2022-12-18T12:35:18;0.20;99.90
36594;DHT22;22603;47.900;8.146;2022-12-18T12:38:12;-0.40;99.90
36594;DHT22;22603;47.900;8.146;2022-12-18T12:41:03;-0.30;99.90
36594;DHT22;22603;47.900;8.146;2022-12-18T12:43:52;-0.20;99.90
36594;DHT22;22603;47.900;8.146;2022-12-18T12:46:41;0.10;99.90
36594;DHT22;22603;47.900;8.146;2022-12-18T12:49:32;0.00;99.90
36594;DHT22;22603;47.900;8.146;2022-12-18T12:52:31;-0.10;99.90
36594;DHT22;22603;47.900;8.146;2022-12-18T12:55:23;-0.20;99.90
36594;DHT22;22603;47.900;8.146;2022-12-18T12:58:17;-0.10;99.90
36594;DHT22;22603;47.900;8.146;2022-12-18T13:01:12;-0.20;99.90
36594;DHT22;22603;47.900;8.146;2022-12-18T13:04:15;0.20;99.90
36594;DHT22;22603;47.900;8.146;2022-12-18T13:07:14;0.70;99.90
36594;DHT22;22603;47.900;8.146;2022-12-18T13:10:30;0.70;99.90
36594;DHT22;22603;47.900;8.146;2022-12-18T13:13:18;0.80;99.90
36594;DHT22;22603;47.900;8.146;2022-12-18T13:16:08;1.00;99.90
36594;DHT22;22603;47.900;8.146;2022-12-18T13:18:57;0.90;99.90
36594;DHT22;22603;47.900;8.146;2022-12-18T13:21:53;0.80;99.90
36594;DHT22;22603;47.900;8.146;2022-12-18T13:24:40;0.30;99.90
36594;DHT22;22603;47.900;8.146;2022-12-18T13:27:57;-0.10;99.90
36594;DHT22;22603;47.900;8.146;2022-12-18T13:30:47;-0.10;99.90
36594;DHT22;22603;47.900;8.146;2022-12-18T13:33:43;-0.20;99.90
36594;DHT22;22603;47.900;8.146;2022-12-18T13:36:51;-0.30;99.90
36594;DHT22;22603;47.900;8.146;2022-12-18T13:39:38;-0.20;99.90
36594;DHT22;22603;47.900;8.146;2022-12-18T13:42:39;-0.10;99.90
36594;DHT22;22603;47.900;8.146;2022-12-18T13:45:49;-0.20;99.90
36594;DHT22;22603;47.900;8.146;2022-12-18T13:48:38;-0.20;99.90
36594;DHT22;22603;47.900;8.146;2022-12-18T13:51:26;0.00;99.90
36594;DHT22;22603;47.900;8.146;2022-12-18T13:54:19;0.10;99.90
36594;DHT22;22603;47.900;8.146;2022-12-18T13:57:26;0.10;99.90
36594;DHT22;22603;47.900;8.146;2022-12-18T14:00:24;0.20;99.90
36594;DHT22;22603;47.900;8.146;2022-12-18T14:03:22;0.20;99.90
36594;DHT22;22603;47.900;8.146;2022-12-18T14:06:12;0.30;99.90
36594;DHT22;22603;47.900;8.146;2022-12-18T14:09:02;0.20;99.90
36594;DHT22;22603;47.900;8.146;2022-12-18T14:11:54;0.20;99.90
36594;DHT22;22603;47.900;8.146;2022-12-18T14:15:03;0.20;99.90
36594;DHT22;22603;47.900;8.146;2022-12-18T14:17:54;0.10;99.90
36594;DHT22;22603;47.900;8.146;2022-12-18T14:20:48;0.00;99.90
36594;DHT22;22603;47.900;8.146;2022-12-18T14:23:39;0.00;99.90
36594;DHT22;22603;47.900;8.146;2022-12-18T14:26:29;-0.10;99.90
36594;DHT22;22603;47.900;8.146;2022-12-18T14:29:23;-0.10;99.90
36594;DHT22;22603;47.900;8.146;2022-12-18T14:32:12;-0.20;99.90
36594;DHT22;22603;47.900;8.146;2022-12-18T14:35:13;-0.20;99.90
36594;DHT22;22603;47.900;8.146;2022-12-18T14:38:20;-0.40;99.90
36594;DHT22;22603;47.900;8.146;2022-12-18T14:41:11;-0.40;99.90
36594;DHT22;22603;47.900;8.146;2022-12-18T14:44:05;-0.60;99.90
36594;DHT22;22603;47.900;8.146;2022-12-18T14:46:53;-0.70;99.90
36594;DHT22;22603;47.900;8.146;2022-12-18T14:49:42;-0.80;99.90
36594;DHT22;22603;47.900;8.146;2022-12-18T14:52:32;-0.80;99.90
36594;DHT22;22603;47.900;8.146;2022-12-18T14:55:21;-0.80;99.90
36594;DHT22;22603;47.900;8.146;2022-12-18T14:58:14;-0.80;99.90
36594;DHT22;22603;47.900;8.146;2022-12-18T15:01:02;-1.10;99.90
36594;DHT22;22603;47.900;8.146;2022-12-18T15:03:50;-1.30;99.90
36594;DHT22;22603;47.900;8.146;2022-12-18T15:06:38;-1.50;99.90
36594;DHT22;22603;47.900;8.146;2022-12-18T15:09:27;-1.50;99.90
36594;DHT22;22603;47.900;8.146;2022-12-18T15:12:26;-1.60;99.90
36594;DHT22;22603;47.900;8.146;2022-12-18T15:15:44;-1.60;99.90
36594;DHT22;22603;47.900;8.146;2022-12-18T15:18:33;-1.70;99.90
36594;DHT22;22603;47.900;8.146;2022-12-18T15:21:22;-1.80;99.90
36594;DHT22;22603;47.900;8.146;2022-12-18T15:24:16;-1.70;99.90
36594;DHT22;22603;47.900;8.146;2022-12-18T15:27:04;-1.70;99.90
36594;DHT22;22603;47.900;8.146;2022-12-18T15:30:18;-1.70;99.90
36594;DHT22;22603;47.900;8.146;2022-12-18T15:33:23;-1.70;99.90
36594;DHT22;22603;47.900;8.146;2022-12-18T15:36:13;-1.70;99.90
36594;DHT22;22603;47.900;8.146;2022-12-18T15:39:05;-1.70;99.90
36594;DHT22;22603;47.900;8.146;2022-12-18T15:41:52;-1.70;99.90
36594;DHT22;22603;47.900;8.146;2022-12-18T15:44:56;-1.70;99.90
36594;DHT22;22603;47.900;8.146;2022-12-18T15:47:54;-1.70;99.90
36594;DHT22;22603;47.900;8.146;2022-12-18T15:51:08;-1.70;99.90
36594;DHT22;22603;47.900;8.146;2022-12-18T15:54:01;-1.70;99.90
36594;DHT22;22603;47.900;8.146;2022-12-18T15:56:49;-1.80;99.90
36594;DHT22;22603;47.900;8.146;2022-12-18T15:59:55;-1.80;99.90
36594;DHT22;22603;47.900;8.146;2022-12-18T16:02:44;-1.80;99.90
36594;DHT22;22603;47.900;8.146;2022-12-18T16:05:32;-1.90;99.90
36594;DHT22;22603;47.900;8.146;2022-12-18T16:08:19;-1.90;99.90
36594;DHT22;22603;47.900;8.146;2022-12-18T16:11:19;-1.90;99.90
36594;DHT22;22603;47.900;8.146;2022-12-18T16:14:24;-1.90;99.90
36594;DHT22;22603;47.900;8.146;2022-12-18T16:17:14;-1.90;99.90
36594;DHT22;22603;47.900;8.146;2022-12-18T16:20:01;-1.90;99.90
36594;DHT22;22603;47.900;8.146;2022-12-18T16:22:49;-1.90;99.90
36594;DHT22;22603;47.900;8.146;2022-12-18T16:25:37;-1.90;99.90
36594;DHT22;22603;47.900;8.146;2022-12-18T16:28:24;-1.90;99.90
36594;DHT22;22603;47.900;8.146;2022-12-18T16:31:11;-2.00;99.90
36594;DHT22;22603;47.900;8.146;2022-12-18T16:34:12;-2.00;99.90
36594;DHT22;22603;47.900;8.146;2022-12-18T16:37:01;-2.00;99.90
36594;DHT22;22603;47.900;8.146;2022-12-18T16:39:51;-2.00;99.90
36594;DHT22;22603;47.900;8.146;2022-12-18T16:42:40;-2.00;99.90
36594;DHT22;22603;47.900;8.146;2022-12-18T16:45:27;-2.10;99.90
36594;DHT22;22603;47.900;8.146;2022-12-18T16:48:18;-2.00;99.90
36594;DHT22;22603;47.900;8.146;2022-12-18T16:51:06;-2.00;99.90
36594;DHT22;22603;47.900;8.146;2022-12-18T16:53:53;-2.00;99.90
36594;DHT22;22603;47.900;8.146;2022-12-18T16:56:42;-2.00;99.90
36594;DHT22;22603;47.900;8.146;2022-12-18T16:59:30;-1.90;99.90
36594;DHT22;22603;47.900;8.146;2022-12-18T17:02:22;-1.90;99.90
36594;DHT22;22603;47.900;8.146;2022-12-18T17:05:10;-1.90;99.90
36594;DHT22;22603;47.900;8.146;2022-12-18T17:07:57;-1.90;99.90
36594;DHT22;22603;47.900;8.146;2022-12-18T17:10:44;-2.00;99.90
36594;DHT22;22603;47.900;8.146;2022-12-18T17:13:35;-2.00;99.90
36594;DHT22;22603;47.900;8.146;2022-12-18T17:16:23;-2.00;99.90
36594;DHT22;22603;47.900;8.146;2022-12-18T17:19:11;-2.00;99.90
36594;DHT22;22603;47.900;8.146;2022-12-18T17:22:04;-2.00;99.90
36594;DHT22;22603;47.900;8.146;2022-12-18T17:25:19;-1.90;99.90
36594;DHT22;22603;47.900;8.146;2022-12-18T17:28:08;-1.90;99.90
36594;DHT22;22603;47.900;8.146;2022-12-18T17:30:58;-1.90;99.90
36594;DHT22;22603;47.900;8.146;2022-12-18T17:33:46;-1.90;99.90
36594;DHT22;22603;47.900;8.146;2022-12-18T17:36:34;-1.90;99.90
36594;DHT22;22603;47.900;8.146;2022-12-18T17:39:21;-2.10;99.90
36594;DHT22;22603;47.900;8.146;2022-12-18T17:42:08;-2.10;99.90
36594;DHT22;22603;47.900;8.146;2022-12-18T17:45:00;-2.10;99.90
36594;DHT22;22603;47.900;8.146;2022-12-18T17:47:49;-2.10;99.90
36594;DHT22;22603;47.900;8.146;2022-12-18T17:50:44;-2.20;99.90
36594;DHT22;22603;47.900;8.146;2022-12-18T17:53:31;-2.30;99.90
36594;DHT22;22603;47.900;8.146;2022-12-18T17:56:20;-2.40;99.90
36594;DHT22;22603;47.900;8.146;2022-12-18T17:59:08;-2.40;99.90
36594;DHT22;22603;47.900;8.146;2022-12-18T18:01:55;-2.40;99.90
36594;DHT22;22603;47.900;8.146;2022-12-18T18:04:44;-2.50;99.90
36594;DHT22;22603;47.900;8.146;2022-12-18T18:07:31;-2.40;99.90
36594;DHT22;22603;47.900;8.146;2022-12-18T18:10:18;-2.30;99.90
36594;DHT22;22603;47.900;8.146;2022-12-18T18:13:05;-2.30;99.90